Time;durP1;ratioP1;P1;durP2;ratioP2;P2;SDS_P1;SDS_P2;PMS_P1;PMS_P2;Temp;Humidity;BMP_temperature;BMP_pressure;BME280_temperature;BME280_humidity;BME280_pressure;Samples;Min_cycle;Max_cycle;Signal;HPM_P1;HPM_P2
2022/05/08 00:00:23;;;;;;;47.33;36.77;;;;;;;13.31;100.00;99587.69;2034154;29;20612;-71
2022/05/08 00:01:24;;;;;;;55.00;37.92;;;;;;;13.31;100.00;99593.84;2034163;29;20646;-71
2022/05/08 00:02:26;;;;;;;47.97;37.73;;;;;;;13.32;100.00;99592.72;2033980;29;20549;-71
2022/05/08 00:03:27;;;;;;;52.38;38.90;;;;;;;13.27;100.00;99587.47;2033400;29;20204;-71
2022/05/08 00:04:30;;;;;;;47.08;38.15;;;;;;;13.23;100.00;99589.19;2033551;29;20270;-71
2022/05/08 00:05:32;;;;;;;50.40;37.25;;;;;;;13.28;100.00;99589.84;2033978;29;20697;-71
2022/05/08 00:06:34;;;;;;;51.20;37.40;;;;;;;13.27;100.00;99588.25;2033807;29;20571;-71
2022/05/08 00:07:35;;;;;;;48.47;37.90;;;;;;;13.24;100.00;99588.06;2033974;29;20195;-71
2022/05/08 00:08:39;;;;;;;54.10;39.35;;;;;;;13.23;100.00;99581.94;2034096;29;20227;-71
2022/05/08 00:09:40;;;;;;;54.85;38.38;;;;;;;13.28;100.00;99583.69;2033296;29;20200;-72
2022/05/08 00:10:42;;;;;;;53.03;38.67;;;;;;;13.25;100.00;99586.97;2033498;29;20682;-71
2022/05/08 00:11:45;;;;;;;54.13;38.17;;;;;;;13.25;100.00;99584.31;2025298;29;20678;-71
2022/05/08 00:12:47;;;;;;;49.42;37.50;;;;;;;13.22;100.00;99590.28;2018090;29;20208;-71
2022/05/08 00:13:48;;;;;;;55.58;38.97;;;;;;;13.13;100.00;99592.03;2025842;29;20200;-71
2022/05/08 00:14:51;;;;;;;53.27;37.53;;;;;;;13.10;100.00;99587.25;2033976;29;20192;-71
2022/05/08 00:15:52;;;;;;;52.58;38.35;;;;;;;13.05;100.00;99588.19;2034023;29;20215;-72
2022/05/08 00:16:54;;;;;;;50.47;37.97;;;;;;;13.05;100.00;99590.84;2033980;29;20192;-71
2022/05/08 00:17:56;;;;;;;49.40;38.00;;;;;;;13.06;100.00;99592.44;2034061;29;20196;-71
2022/05/08 00:19:00;;;;;;;50.28;37.75;;;;;;;13.01;100.00;99590.63;2034048;29;20693;-71
2022/05/08 00:20:05;;;;;;;56.63;38.45;;;;;;;13.04;100.00;99588.47;2033941;29;20283;-71
2022/05/08 00:21:09;;;;;;;53.88;39.25;;;;;;;13.07;100.00;99587.88;2033471;29;20552;-71
2022/05/08 00:22:11;;;;;;;50.88;38.08;;;;;;;13.07;100.00;99587.88;2024854;29;20313;-71
2022/05/08 00:23:13;;;;;;;52.83;38.33;;;;;;;13.08;100.00;99592.94;2025673;29;20203;-71
2022/05/08 00:24:14;;;;;;;50.55;37.97;;;;;;;13.06;100.00;99583.59;2034090;29;20531;-71
2022/05/08 00:25:17;;;;;;;50.67;39.13;;;;;;;13.07;100.00;99583.31;2033944;29;20202;-71
2022/05/08 00:26:18;;;;;;;51.05;39.67;;;;;;;13.13;100.00;99586.69;2034058;29;20211;-71
2022/05/08 00:27:20;;;;;;;51.83;39.35;;;;;;;13.10;100.00;99587.25;2032885;29;20203;-72
2022/05/08 00:28:21;;;;;;;54.90;39.95;;;;;;;13.10;100.00;99590.72;2033214;29;20263;-71
2022/05/08 00:29:23;;;;;;;51.58;39.28;;;;;;;13.10;100.00;99587.25;2033354;29;20698;-71
2022/05/08 00:30:23;;;;;;;54.25;39.88;;;;;;;13.11;100.00;99586.16;2034041;29;20195;-71
2022/05/08 00:31:26;;;;;;;56.07;40.87;;;;;;;13.16;100.00;99591.44;2033920;29;20666;-72
2022/05/08 00:32:27;;;;;;;52.90;39.20;;;;;;;13.09;100.00;99586.47;2032982;29;20219;-71
2022/05/08 00:33:31;;;;;;;53.25;39.60;;;;;;;13.13;100.00;99576.75;2033524;29;20256;-71
2022/05/08 00:34:32;;;;;;;52.33;40.28;;;;;;;13.12;100.00;99583.22;2032976;29;20231;-72
2022/05/08 00:35:37;;;;;;;51.75;40.08;;;;;;;13.14;100.00;99578.34;2025340;29;20204;-71
2022/05/08 00:36:39;;;;;;;53.47;39.78;;;;;;;13.14;100.00;99586.38;2024945;29;20224;-72
2022/05/08 00:37:41;;;;;;;52.40;39.83;;;;;;;13.15;100.00;99579.13;2033286;29;20238;-71
2022/05/08 00:38:42;;;;;;;54.63;39.38;;;;;;;13.14;100.00;99574.88;2033954;29;20200;-71
2022/05/08 00:39:46;;;;;;;54.87;41.33;;;;;;;13.11;100.00;99575.44;2024778;29;20209;-71
2022/05/08 00:40:47;;;;;;;60.75;47.63;;;;;;;13.07;100.00;99577.94;2025985;29;20188;-71
2022/05/08 00:41:49;;;;;;;60.73;45.13;;;;;;;13.06;100.00;99578.25;2033106;29;20253;-71
2022/05/08 00:42:50;;;;;;;58.95;44.50;;;;;;;13.05;100.00;99574.00;2032823;29;20211;-72
2022/05/08 00:43:54;;;;;;;52.33;43.55;;;;;;;13.01;100.00;99571.88;2025916;29;20196;-71
2022/05/08 00:44:55;;;;;;;55.58;40.60;;;;;;;13.01;100.00;99574.56;2032631;29;20220;-71
2022/05/08 00:45:58;;;;;;;50.90;39.90;;;;;;;13.00;100.00;99564.94;2033555;29;20215;-71
2022/05/08 00:47:00;;;;;;;62.20;46.78;;;;;;;13.00;100.00;99577.56;2032746;29;20259;-71
2022/05/08 00:48:01;;;;;;;78.90;52.92;;;;;;;12.97;100.00;99578.16;2033317;29;20225;-71
2022/05/08 00:49:04;;;;;;;76.05;51.50;;;;;;;12.96;100.00;99577.38;2033030;29;20203;-71
2022/05/08 00:50:06;;;;;;;81.05;52.78;;;;;;;12.98;100.00;99577.06;2033252;29;20262;-72
2022/05/08 00:51:11;;;;;;;69.65;48.42;;;;;;;12.97;100.00;99578.94;2033357;29;20187;-71
2022/05/08 00:52:15;;;;;;;70.80;49.38;;;;;;;12.98;100.00;99575.19;2025386;29;20683;-71
2022/05/08 00:53:16;;;;;;;69.32;48.45;;;;;;;13.00;100.00;99577.56;2025929;29;20699;-72
2022/05/08 00:54:18;;;;;;;62.85;48.80;;;;;;;13.00;100.00;99578.34;2033313;29;20198;-71
2022/05/08 00:55:19;;;;;;;59.00;43.72;;;;;;;13.03;100.00;99574.28;2033829;29;20196;-71
2022/05/08 00:56:22;;;;;;;66.13;44.03;;;;;;;12.99;100.00;99575.97;2033910;29;20714;-71
2022/05/08 00:57:23;;;;;;;57.78;41.42;;;;;;;13.00;100.00;99572.97;2032751;29;20239;-71
2022/05/08 00:58:27;;;;;;;59.63;43.58;;;;;;;12.98;100.00;99577.06;2033211;29;20263;-72
2022/05/08 00:59:28;;;;;;;52.63;40.45;;;;;;;12.97;100.00;99578.94;2033693;29;20256;-71
2022/05/08 01:00:30;;;;;;;56.50;39.27;;;;;;;12.95;100.00;99575.78;2034220;29;20275;-71
2022/05/08 01:01:30;;;;;;;54.47;41.25;;;;;;;12.95;100.00;99573.09;2034457;29;20871;-71
2022/05/08 01:02:32;;;;;;;55.77;40.33;;;;;;;12.94;100.00;99576.88;2026319;29;20208;-71
2022/05/08 01:03:35;;;;;;;52.83;41.58;;;;;;;12.93;100.00;99579.84;2026657;29;20672;-71
2022/05/08 01:04:38;;;;;;;55.78;40.22;;;;;;;12.90;100.00;99573.19;2034596;29;20632;-71
2022/05/08 01:05:41;;;;;;;54.30;39.95;;;;;;;12.94;100.00;99579.56;2035345;29;20203;-71
2022/05/08 01:06:47;;;;;;;59.17;41.53;;;;;;;12.92;100.00;99573.69;2026392;29;20318;-71
2022/05/08 01:07:48;;;;;;;52.10;39.60;;;;;;;12.90;100.00;99578.56;2027287;29;20189;-71
2022/05/08 01:08:51;;;;;;;61.65;40.88;;;;;;;12.92;100.00;99576.34;2026277;29;20205;-71
2022/05/08 01:09:53;;;;;;;54.05;40.10;;;;;;;12.93;100.00;99574.47;2026950;29;20331;-72
2022/05/08 01:10:57;;;;;;;58.15;40.15;;;;;;;12.94;100.00;99584.91;2035128;29;20188;-71
2022/05/08 01:11:58;;;;;;;54.72;40.45;;;;;;;12.88;100.00;99578.06;2033962;29;20204;-71
2022/05/08 01:13:01;;;;;;;55.50;40.75;;;;;;;12.91;100.00;99584.69;2034651;29;20195;-71
2022/05/08 01:14:03;;;;;;;55.25;40.00;;;;;;;12.90;100.00;99583.91;2035246;29;20199;-71
2022/05/08 01:15:14;;;;;;;59.75;39.95;;;;;;;12.98;100.00;99577.84;2035205;29;20191;-71
2022/05/08 01:16:17;;;;;;;56.55;41.50;;;;;;;12.95;100.00;99583.03;2034489;29;20344;-71
2022/05/08 01:17:20;;;;;;;54.42;40.20;;;;;;;12.92;100.00;99581.72;2026302;29;20283;-71
2022/05/08 01:18:22;;;;;;;54.55;40.70;;;;;;;12.91;100.00;99579.34;2027073;29;20534;-71
2022/05/08 01:19:22;;;;;;;52.17;40.78;;;;;;;12.90;100.00;99581.22;2035154;29;20211;-71
2022/05/08 01:20:24;;;;;;;53.97;40.80;;;;;;;12.90;100.00;99583.13;2026252;29;20204;-71
2022/05/08 01:21:35;;;;;;;55.42;40.05;;;;;;;12.90;100.00;99583.91;2026482;29;20228;-71
2022/05/08 01:22:37;;;;;;;57.67;40.25;;;;;;;12.92;100.00;99586.28;2026654;29;20562;-70
2022/05/08 01:23:39;;;;;;;58.45;39.95;;;;;;;12.89;100.00;99579.66;2026770;29;20193;-71
2022/05/08 01:24:40;;;;;;;53.28;40.38;;;;;;;12.90;100.00;99580.44;2026234;29;20212;-71
2022/05/08 01:25:47;;;;;;;56.53;39.78;;;;;;;12.86;100.00;99574.09;2026680;29;20527;-71
2022/05/08 01:26:48;;;;;;;56.10;40.72;;;;;;;12.86;100.00;99579.47;2034324;29;20344;-71
2022/05/08 01:27:50;;;;;;;55.90;40.30;;;;;;;12.88;100.00;99586.09;2026374;29;20221;-71
2022/05/08 01:28:53;;;;;;;54.85;40.72;;;;;;;12.87;100.00;99578.38;2026515;29;20239;-71
2022/05/08 01:29:55;;;;;;;56.17;40.80;;;;;;;12.85;100.00;99581.31;2034672;29;20219;-71
2022/05/08 01:30:56;;;;;;;55.10;41.40;;;;;;;12.81;100.00;99580.34;2034955;29;20206;-71
2022/05/08 01:31:59;;;;;;;62.08;40.17;;;;;;;12.80;100.00;99578.75;2026612;29;20205;-71
2022/05/08 01:33:00;;;;;;;57.20;40.70;;;;;;;12.78;100.00;99580.94;2026382;29;20329;-71
2022/05/08 01:34:02;;;;;;;54.50;39.50;;;;;;;12.74;100.00;99577.25;2034014;29;20200;-71
2022/05/08 01:35:05;;;;;;;53.88;41.00;;;;;;;12.77;100.00;99582.03;2034389;29;20199;-71
2022/05/08 01:36:07;;;;;;;60.08;42.67;;;;;;;12.77;100.00;99579.38;2033758;29;20207;-71
2022/05/08 01:37:09;;;;;;;56.72;41.53;;;;;;;12.77;100.00;99571.31;2034571;29;20176;-71
2022/05/08 01:38:13;;;;;;;55.33;40.83;;;;;;;12.78;100.00;99572.91;2034402;29;20203;-71
2022/05/08 01:39:16;;;;;;;55.15;40.33;;;;;;;12.80;100.00;99573.41;2026082;29;20205;-71
2022/05/08 01:40:18;;;;;;;57.10;41.22;;;;;;;12.78;100.00;99572.91;2026551;29;20203;-71
2022/05/08 01:41:20;;;;;;;55.17;41.38;;;;;;;12.85;100.00;99581.31;2027350;29;20286;-71
2022/05/08 01:42:20;;;;;;;57.20;41.83;;;;;;;12.94;100.00;99574.19;2025853;29;20629;-71
2022/05/08 01:43:23;;;;;;;56.70;41.00;;;;;;;12.89;100.00;99570.81;2026656;29;20196;-71
2022/05/08 01:44:24;;;;;;;55.67;41.10;;;;;;;12.89;100.00;99576.19;2033874;29;20215;-71
2022/05/08 01:45:28;;;;;;;52.80;39.53;;;;;;;12.88;100.00;99567.34;2026108;29;20205;-70
2022/05/08 01:46:29;;;;;;;53.60;39.40;;;;;;;12.89;100.00;99566.25;2026728;29;20626;-71
2022/05/08 01:48:52;;;;;;;52.13;38.95;;;;;;;12.85;100.00;99565.25;2032250;29;20581;-71
2022/05/08 01:49:53;;;;;;;58.78;41.65;;;;;;;12.86;100.00;99574.09;2026396;29;20263;-71
2022/05/08 01:50:57;;;;;;;52.67;39.97;;;;;;;12.92;100.00;99573.69;2018209;29;20740;-72
2022/05/08 01:51:58;;;;;;;59.38;39.85;;;;;;;12.89;100.00;99576.97;2026496;29;20173;-71
2022/05/08 01:53:02;;;;;;;54.15;39.67;;;;;;;12.92;100.00;99571.00;2027166;29;20276;-71
2022/05/08 01:54:05;;;;;;;53.75;40.90;;;;;;;12.88;100.00;99566.56;2027036;29;20730;-71
2022/05/08 01:55:08;;;;;;;54.67;39.95;;;;;;;12.87;100.00;99568.44;2034144;29;20247;-71
2022/05/08 01:56:11;;;;;;;57.67;41.78;;;;;;;12.89;100.00;99574.28;2034129;29;20685;-72
2022/05/08 01:57:14;;;;;;;58.45;41.13;;;;;;;12.88;100.00;99572.72;2027146;29;20298;-71
2022/05/08 01:58:16;;;;;;;55.35;40.90;;;;;;;12.94;100.00;99574.19;2034149;29;20220;-71
2022/05/08 01:59:18;;;;;;;61.50;40.05;;;;;;;12.95;100.00;99575.78;2033987;29;20195;-71
2022/05/08 02:00:20;;;;;;;56.33;40.73;;;;;;;12.93;100.00;99577.16;2026334;29;20196;-72
2022/05/08 02:01:22;;;;;;;54.50;40.65;;;;;;;12.90;100.00;99573.19;2026552;29;20730;-71
2022/05/08 02:02:24;;;;;;;53.33;40.63;;;;;;;12.87;100.00;99579.16;2034223;29;20586;-71
2022/05/08 02:03:26;;;;;;;57.67;40.20;;;;;;;12.87;100.00;99567.66;2027112;29;20644;-71
2022/05/08 02:04:27;;;;;;;55.97;39.13;;;;;;;12.85;100.00;99569.81;2026178;29;20552;-71
2022/05/08 02:05:29;;;;;;;55.23;41.20;;;;;;;12.88;100.00;99574.59;2026341;29;20248;-71
2022/05/08 02:06:30;;;;;;;55.28;40.97;;;;;;;12.86;100.00;99566.06;2025518;29;20236;-71
2022/05/08 02:07:32;;;;;;;56.50;41.67;;;;;;;12.84;100.00;99574.38;2018135;29;20216;-71
2022/05/08 02:08:35;;;;;;;56.10;40.92;;;;;;;12.85;100.00;99575.16;2017897;29;20213;-71
2022/05/08 02:09:38;;;;;;;60.10;42.40;;;;;;;12.84;100.00;99579.72;2026295;29;20675;-72
2022/05/08 02:10:43;;;;;;;57.53;40.88;;;;;;;12.86;100.00;99577.56;2026920;29;20196;-72
2022/05/08 02:11:44;;;;;;;54.17;41.35;;;;;;;12.85;100.00;99575.16;2026683;29;20192;-71
2022/05/08 02:12:46;;;;;;;53.60;40.30;;;;;;;12.82;100.00;99565.84;2025802;29;20240;-71
2022/05/08 02:13:50;;;;;;;53.80;41.25;;;;;;;12.85;100.00;99573.28;2026327;29;20196;-71
2022/05/08 02:14:51;;;;;;;53.47;40.90;;;;;;;12.88;100.00;99572.72;2026936;29;20750;-71
2022/05/08 02:15:53;;;;;;;52.83;39.80;;;;;;;12.87;100.00;99562.28;2033589;29;20651;-71
2022/05/08 02:16:54;;;;;;;55.67;40.95;;;;;;;12.87;100.00;99567.66;2026158;29;20204;-71
2022/05/08 02:17:57;;;;;;;52.03;40.87;;;;;;;12.89;100.00;99565.47;2026228;29;20691;-71
2022/05/08 02:18:57;;;;;;;54.33;41.85;;;;;;;12.87;100.00;99565.78;2026185;29;20212;-71
2022/05/08 02:20:02;;;;;;;58.47;40.67;;;;;;;12.89;100.00;99560.09;2018413;29;20836;-71
2022/05/08 02:21:04;;;;;;;57.13;39.85;;;;;;;12.88;100.00;99561.19;2025374;29;20208;-71
2022/05/08 02:22:05;;;;;;;52.53;40.08;;;;;;;12.90;100.00;99565.16;2033924;29;20730;-71
2022/05/08 02:23:07;;;;;;;57.47;42.38;;;;;;;12.93;100.00;99572.59;2026834;29;20548;-72
2022/05/08 02:24:11;;;;;;;55.20;41.53;;;;;;;12.93;100.00;99566.44;2033839;29;20196;-71
2022/05/08 02:25:13;;;;;;;55.10;41.65;;;;;;;12.93;100.00;99561.88;2033902;29;20192;-71
2022/05/08 02:26:15;;;;;;;56.97;41.72;;;;;;;12.94;100.00;99568.84;2026726;29;20559;-72
2022/05/08 02:27:16;;;;;;;54.22;40.17;;;;;;;12.96;100.00;99569.34;2026679;29;20207;-71
2022/05/08 02:28:20;;;;;;;51.33;40.67;;;;;;;12.95;100.00;99575.78;2026842;29;20188;-72
2022/05/08 02:29:21;;;;;;;54.95;41.70;;;;;;;13.00;100.00;99578.34;2026850;29;20212;-71
2022/05/08 02:30:23;;;;;;;53.60;41.10;;;;;;;12.98;100.00;99572.50;2026661;29;20189;-71
2022/05/08 02:31:25;;;;;;;53.47;41.17;;;;;;;12.95;100.00;99567.75;2026807;29;20201;-71
2022/05/08 02:32:28;;;;;;;51.78;40.88;;;;;;;12.97;100.00;99562.88;2027212;29;20195;-70
2022/05/08 02:33:28;;;;;;;52.72;40.80;;;;;;;12.99;100.00;99576.75;2034514;29;20180;-71
2022/05/08 02:34:32;;;;;;;55.37;40.63;;;;;;;13.00;100.00;99577.56;2025453;29;20252;-71
2022/05/08 02:35:34;;;;;;;57.25;41.63;;;;;;;12.99;100.00;99571.41;2026411;29;20264;-71
2022/05/08 02:36:35;;;;;;;52.80;40.55;;;;;;;13.00;100.00;99570.31;2034113;29;20682;-70
2022/05/08 02:37:38;;;;;;;60.63;42.50;;;;;;;12.96;100.00;99568.53;2034445;29;20610;-72
2022/05/08 02:38:40;;;;;;;52.53;40.72;;;;;;;12.97;100.00;99578.94;2033452;29;20697;-71
2022/05/08 02:39:43;;;;;;;57.53;41.40;;;;;;;12.91;100.00;99569.41;2033844;29;20222;-72
2022/05/08 02:40:43;;;;;;;57.72;42.65;;;;;;;12.91;100.00;99580.13;2034434;29;20200;-71
2022/05/08 02:41:45;;;;;;;56.80;42.17;;;;;;;12.92;100.00;99571.00;2034481;29;20280;-71
2022/05/08 02:42:47;;;;;;;54.90;42.22;;;;;;;12.92;100.00;99571.00;2025254;29;20655;-71
2022/05/08 02:43:51;;;;;;;54.85;42.53;;;;;;;12.94;100.00;99576.88;2026409;29;20193;-71
2022/05/08 02:44:52;;;;;;;53.83;40.00;;;;;;;12.90;100.00;99573.19;2025879;29;20208;-71
2022/05/08 02:45:59;;;;;;;56.47;41.53;;;;;;;12.92;100.00;99576.34;2026021;29;20284;-71
2022/05/08 02:47:00;;;;;;;52.83;40.28;;;;;;;12.93;100.00;99577.94;2034554;29;20184;-71
2022/05/08 02:48:02;;;;;;;54.00;40.93;;;;;;;12.90;100.00;99573.19;2034619;29;20250;-71
2022/05/08 02:49:03;;;;;;;59.92;43.03;;;;;;;12.92;100.00;99581.72;2025518;29;20204;-72
2022/05/08 02:50:09;;;;;;;52.92;40.90;;;;;;;12.91;100.00;99574.00;2018258;29;20208;-71
2022/05/08 02:51:11;;;;;;;55.53;40.63;;;;;;;12.91;100.00;99582.81;2026320;29;20625;-71
2022/05/08 02:52:15;;;;;;;51.95;40.63;;;;;;;12.93;100.00;99583.31;2034447;29;20187;-72
2022/05/08 02:53:17;;;;;;;52.60;40.67;;;;;;;12.92;100.00;99583.59;2034495;29;20282;-72
2022/05/08 02:54:17;;;;;;;53.83;40.90;;;;;;;12.96;100.00;99577.38;2034370;29;20191;-71
2022/05/08 02:59:21;;;;;;;51.90;39.78;;;;;;;12.90;100.00;99583.13;2033365;29;20250;-71
2022/05/08 03:00:22;;;;;;;53.25;39.28;;;;;;;12.89;100.00;99581.53;2033672;29;20604;-71
2022/05/08 03:01:24;;;;;;;50.13;39.25;;;;;;;12.89;100.00;99582.31;2025464;29;20295;-70
2022/05/08 03:02:25;;;;;;;52.97;39.92;;;;;;;12.86;100.00;99582.94;2017520;29;20209;-71
2022/05/08 03:03:27;;;;;;;54.27;38.47;;;;;;;12.88;100.00;99580.75;2026011;29;20230;-72
2022/05/08 03:04:28;;;;;;;53.53;39.47;;;;;;;12.87;100.00;99587.19;2034261;29;20199;-70
2022/05/08 03:05:30;;;;;;;48.77;38.67;;;;;;;12.84;100.00;99584.28;2025782;29;20216;-71
2022/05/08 03:06:33;;;;;;;47.63;37.17;;;;;;;12.81;100.00;99591.06;2025466;29;20295;-71
2022/05/08 03:07:35;;;;;;;53.92;39.42;;;;;;;12.80;100.00;99583.31;2034239;29;20195;-71
2022/05/08 03:08:37;;;;;;;51.17;38.72;;;;;;;12.80;100.00;99586.00;2033521;29;20195;-71
2022/05/08 03:09:40;;;;;;;50.40;38.53;;;;;;;12.77;100.00;99582.03;2033753;29;20238;-70
2022/05/08 03:12:03;;;;;;;51.17;38.72;;;;;;;12.75;100.00;99581.53;2028550;29;20187;-71
2022/05/08 03:13:03;;;;;;;47.63;37.30;;;;;;;12.78;100.00;99585.50;2034184;29;20200;-71
2022/05/08 03:14:07;;;;;;;50.73;38.77;;;;;;;12.77;100.00;99592.75;2025373;29;20212;-72
2022/05/08 03:15:10;;;;;;;51.90;38.88;;;;;;;12.78;100.00;99583.63;2026152;29;20247;-70
2022/05/08 03:16:12;;;;;;;49.47;37.55;;;;;;;12.76;100.00;99585.00;2025725;29;20203;-71
2022/05/08 03:17:13;;;;;;;51.30;38.00;;;;;;;12.76;100.00;99580.44;2025714;29;20215;-71
2022/05/08 03:18:16;;;;;;;49.23;38.70;;;;;;;12.76;100.00;99587.66;2033627;29;20279;-71
2022/05/08 03:19:19;;;;;;;46.10;37.05;;;;;;;12.73;100.00;99589.06;2034151;29;20199;-71
2022/05/08 03:20:19;;;;;;;49.50;37.47;;;;;;;12.73;100.00;99587.19;2025600;29;20224;-70
2022/05/08 03:21:23;;;;;;;51.17;38.87;;;;;;;12.73;100.00;99589.84;2017594;29;20239;-70
2022/05/08 03:22:25;;;;;;;53.08;38.72;;;;;;;12.71;100.00;99584.00;2018333;29;20212;-70
2022/05/08 03:23:26;;;;;;;50.63;37.97;;;;;;;12.70;100.00;99589.66;2025197;29;20209;-71
2022/05/08 03:24:31;;;;;;;48.80;39.10;;;;;;;12.72;100.00;99587.47;2025373;29;20238;-71
2022/05/08 03:25:32;;;;;;;52.08;39.15;;;;;;;12.68;100.00;99584.63;2017598;29;20209;-70
2022/05/08 03:26:36;;;;;;;57.97;38.67;;;;;;;12.71;100.00;99593.94;2025784;29;20197;-71
2022/05/08 03:27:39;;;;;;;48.35;36.83;;;;;;;12.72;100.00;99604.34;2033456;29;20227;-70
2022/05/08 03:28:42;;;;;;;48.05;38.28;;;;;;;12.71;100.00;99588.56;2025583;29;20604;-71
2022/05/08 03:29:44;;;;;;;49.05;38.22;;;;;;;12.75;100.00;99597.59;2025900;29;20256;-71
2022/05/08 03:30:45;;;;;;;48.75;37.28;;;;;;;12.77;100.00;99586.56;2033402;29;20210;-70
2022/05/08 03:31:47;;;;;;;48.85;38.17;;;;;;;12.82;100.00;99587.28;2025635;29;20204;-71
2022/05/08 03:32:49;;;;;;;51.38;37.10;;;;;;;12.79;100.00;99590.56;2018002;29;20248;-70
2022/05/08 03:33:51;;;;;;;51.17;38.47;;;;;;;12.79;100.00;99593.25;2025776;29;20198;-70
2022/05/08 03:34:53;;;;;;;53.30;38.97;;;;;;;12.84;100.00;99587.78;2034088;29;20210;-71
2022/05/08 03:35:56;;;;;;;47.30;37.20;;;;;;;12.86;100.00;99590.97;2033549;29;20199;-70
2022/05/08 03:36:58;;;;;;;44.92;37.80;;;;;;;12.83;100.00;99586.19;2034302;29;20187;-72
2022/05/08 03:37:59;;;;;;;49.40;38.03;;;;;;;12.86;100.00;99592.84;2025592;29;20215;-70
2022/05/08 03:39:01;;;;;;;49.70;39.07;;;;;;;12.84;100.00;99598.47;2025943;29;20710;-70
2022/05/08 03:40:03;;;;;;;50.20;38.95;;;;;;;12.82;100.00;99600.66;2033928;29;20328;-70
2022/05/08 03:41:07;;;;;;;46.17;38.08;;;;;;;12.82;100.00;99600.66;2025544;29;20305;-70
2022/05/08 03:42:12;;;;;;;48.63;38.63;;;;;;;12.81;100.00;99598.28;2026065;29;20204;-71
2022/05/08 03:43:13;;;;;;;49.40;38.45;;;;;;;12.78;100.00;99602.38;2032972;29;20211;-70
2022/05/08 03:44:15;;;;;;;50.50;38.63;;;;;;;12.82;100.00;99599.88;2025684;29;20192;-70
2022/05/08 03:45:17;;;;;;;47.13;38.92;;;;;;;12.87;100.00;99599.78;2024967;29;20271;-71
2022/05/08 03:46:18;;;;;;;45.83;37.80;;;;;;;12.88;100.00;99601.38;2025972;29;20232;-70
2022/05/08 03:47:19;;;;;;;48.33;39.17;;;;;;;12.90;100.00;99604.53;2034042;29;20196;-71
2022/05/08 03:48:24;;;;;;;56.37;38.60;;;;;;;12.91;100.00;99603.44;2034252;29;20647;-70
2022/05/08 03:49:26;;;;;;;52.35;38.45;;;;;;;12.92;100.00;99602.34;2033401;29;20208;-70
2022/05/08 03:50:29;;;;;;;50.63;38.17;;;;;;;12.96;100.00;99609.50;2032996;29;20229;-71
2022/05/08 03:51:31;;;;;;;45.55;37.47;;;;;;;12.98;100.00;99601.97;2025425;29;20368;-71
2022/05/08 03:52:34;;;;;;;49.30;39.17;;;;;;;13.06;100.00;99613.06;2033367;29;20211;-71
2022/05/08 03:53:36;;;;;;;48.65;38.88;;;;;;;13.07;100.00;99606.63;2033537;29;20574;-70
2022/05/08 03:54:37;;;;;;;49.17;38.60;;;;;;;13.07;100.00;99603.94;2033427;29;20195;-71
2022/05/08 03:55:39;;;;;;;46.47;37.50;;;;;;;13.08;100.00;99611.69;2033376;29;20239;-71
2022/05/08 03:56:42;;;;;;;47.80;38.03;;;;;;;13.11;100.00;99615.63;2033951;29;20196;-70
2022/05/08 03:57:45;;;;;;;48.45;37.88;;;;;;;13.18;100.00;99616.81;2034026;29;20220;-70
2022/05/08 03:58:46;;;;;;;48.10;37.63;;;;;;;13.25;100.00;99621.81;2032959;29;20291;-71
2022/05/08 03:59:47;;;;;;;45.85;37.55;;;;;;;13.25;100.00;99611.91;2025597;29;20215;-70
2022/05/08 04:00:49;;;;;;;46.77;36.90;;;;;;;13.31;100.00;99619.84;2025703;29;20278;-71
2022/05/08 04:01:49;;;;;;;47.17;36.45;;;;;;;13.28;100.00;99611.28;2033924;29;20211;-70
2022/05/08 04:02:53;;;;;;;48.67;37.17;;;;;;;13.31;100.00;99614.47;2034110;29;20255;-70
2022/05/08 04:03:56;;;;;;;51.92;37.15;;;;;;;13.38;100.00;99618.34;2033940;29;20210;-70
2022/05/08 04:04:56;;;;;;;49.10;36.28;;;;;;;13.38;100.00;99617.53;2033916;29;20231;-70
2022/05/08 04:05:58;;;;;;;45.43;37.07;;;;;;;13.39;100.00;99617.25;2032469;29;20210;-71
2022/05/08 04:07:00;;;;;;;47.72;37.10;;;;;;;13.38;100.00;99628.25;2033545;29;20650;-70
2022/05/08 04:08:01;;;;;;;47.65;35.78;;;;;;;13.39;100.00;99625.28;2034006;29;20207;-70
2022/05/08 04:09:04;;;;;;;49.77;36.50;;;;;;;13.41;100.00;99623.09;2033906;29;20230;-70
2022/05/08 04:10:07;;;;;;;46.08;36.78;;;;;;;13.42;100.00;99631.94;2033322;29;20291;-70
2022/05/08 04:11:09;;;;;;;46.40;35.33;;;;;;;13.41;100.00;99636.50;2033371;29;20191;-71
2022/05/08 04:12:09;;;;;;;52.40;36.85;;;;;;;13.43;100.00;99628.16;2033953;29;20199;-70
2022/05/08 04:13:15;;;;;;;42.37;37.60;;;;;;;13.45;100.00;99626.75;2033933;29;20194;-70
2022/05/08 04:14:17;;;;;;;46.05;35.92;;;;;;;13.34;100.00;99628.06;2034038;29;20557;-70
2022/05/08 04:16:37;;;;;;;45.80;36.20;;;;;;;13.32;100.00;99630.25;2033312;29;20274;-71
2022/05/08 04:17:39;;;;;;;44.33;36.30;;;;;;;13.39;100.00;99638.69;2033259;29;20252;-70
2022/05/08 04:18:40;;;;;;;44.22;36.60;;;;;;;13.23;100.00;99629.38;2033295;29;20226;-70
2022/05/08 04:19:42;;;;;;;49.53;37.60;;;;;;;13.21;100.00;99629.69;2033861;29;20235;-71
2022/05/08 04:20:46;;;;;;;49.58;37.08;;;;;;;13.28;100.00;99632.72;2034036;29;20542;-70
2022/05/08 04:21:47;;;;;;;44.55;36.08;;;;;;;13.31;100.00;99636.72;2023897;29;20691;-71
2022/05/08 04:24:17;;;;;;;52.72;37.83;;;;;;;13.28;100.00;99631.94;2028213;29;20187;-71
2022/05/08 04:25:18;;;;;;;48.15;37.75;;;;;;;13.27;100.00;99635.69;2033874;29;20241;-70
2022/05/08 04:26:20;;;;;;;50.10;39.50;;;;;;;13.25;100.00;99637.91;2034011;29;20192;-70
2022/05/08 04:27:24;;;;;;;51.78;39.08;;;;;;;13.23;100.00;99634.72;2034075;29;20211;-71
2022/05/08 04:28:27;;;;;;;49.03;38.30;;;;;;;13.21;100.00;99634.25;2025400;29;20204;-70
2022/05/08 04:29:29;;;;;;;47.72;38.15;;;;;;;13.27;100.00;99641.84;2025626;29;20559;-70
2022/05/08 04:30:30;;;;;;;51.03;38.58;;;;;;;13.25;100.00;99633.31;2033952;29;20196;-70
2022/05/08 04:31:33;;;;;;;48.65;37.88;;;;;;;13.24;100.00;99636.31;2033881;29;20343;-70
2022/05/08 04:32:34;;;;;;;45.67;39.30;;;;;;;13.21;100.00;99635.03;2033845;29;20286;-71
2022/05/08 04:33:36;;;;;;;47.37;38.83;;;;;;;13.21;100.00;99634.25;2033264;29;20240;-70
2022/05/08 04:34:39;;;;;;;51.70;38.33;;;;;;;13.22;100.00;99635.81;2033882;29;20596;-71
2022/05/08 04:35:41;;;;;;;49.58;37.90;;;;;;;13.20;100.00;99633.41;2027527;29;20573;-70
2022/05/08 04:36:43;;;;;;;47.47;38.15;;;;;;;13.22;100.00;99641.97;2035109;29;20721;-70
2022/05/08 04:37:45;;;;;;;48.35;36.67;;;;;;;13.22;100.00;99644.66;2034637;29;20211;-71
2022/05/08 04:38:48;;;;;;;50.17;38.72;;;;;;;13.29;100.00;99644.22;2034765;29;20686;-70
2022/05/08 04:39:49;;;;;;;46.33;38.83;;;;;;;13.27;100.00;99644.53;2035274;29;20199;-71
2022/05/08 04:40:52;;;;;;;50.80;38.60;;;;;;;13.36;100.00;99639.28;2035222;29;20247;-70
2022/05/08 04:41:55;;;;;;;53.45;38.85;;;;;;;13.35;100.00;99645.72;2035285;29;20196;-70
2022/05/08 04:42:55;;;;;;;48.45;38.78;;;;;;;13.38;100.00;99642.47;2035283;29;20251;-70
2022/05/08 04:44:00;;;;;;;49.77;39.07;;;;;;;13.44;100.00;99640.44;2035349;29;20196;-70
2022/05/08 04:45:04;;;;;;;51.85;40.42;;;;;;;13.41;100.00;99646.41;2034390;29;20280;-71
2022/05/08 04:46:06;;;;;;;50.25;38.63;;;;;;;13.42;100.00;99642.66;2034912;29;20188;-70
2022/05/08 04:47:06;;;;;;;46.53;39.70;;;;;;;13.40;100.00;99645.63;2034590;29;20263;-70
2022/05/08 04:48:10;;;;;;;49.03;39.13;;;;;;;13.40;100.00;99648.31;2034921;29;20188;-71
2022/05/08 04:49:12;;;;;;;52.83;39.17;;;;;;;13.45;100.00;99639.34;2035263;29;20195;-71
2022/05/08 04:50:13;;;;;;;52.40;39.13;;;;;;;13.44;100.00;99649.28;2035244;29;20278;-71
2022/05/08 04:51:15;;;;;;;48.10;38.78;;;;;;;13.47;100.00;99650.59;2034779;29;20230;-70
2022/05/08 04:52:17;;;;;;;51.15;38.67;;;;;;;13.45;100.00;99642.03;2035488;29;20180;-70